sensor_id;sensor_type;location;lat;lon;timestamp;P1;durP1;ratioP1;P2;durP2;ratioP2
48627;SDS011;34424;52.234;6.500;2022-12-11T00:03:29;91.53;;;35.03;;
48627;SDS011;34424;52.234;6.500;2022-12-11T00:08:31;96.82;;;34.92;;
48627;SDS011;34424;52.234;6.500;2022-12-11T00:13:35;87.80;;;31.65;;
48627;SDS011;34424;52.234;6.500;2022-12-11T00:18:38;92.50;;;36.10;;
48627;SDS011;34424;52.234;6.500;2022-12-11T00:23:40;90.80;;;33.80;;
48627;SDS011;34424;52.234;6.500;2022-12-11T00:28:44;100.97;;;33.37;;
48627;SDS011;34424;52.234;6.500;2022-12-11T00:33:47;86.10;;;32.95;;
48627;SDS011;34424;52.234;6.500;2022-12-11T00:38:50;89.93;;;30.37;;
48627;SDS011;34424;52.234;6.500;2022-12-11T00:43:54;88.75;;;32.80;;
48627;SDS011;34424;52.234;6.500;2022-12-11T00:48:57;80.20;;;31.77;;
48627;SDS011;34424;52.234;6.500;2022-12-11T00:53:59;115.10;;;35.10;;
48627;SDS011;34424;52.234;6.500;2022-12-11T00:59:03;82.72;;;32.03;;
48627;SDS011;34424;52.234;6.500;2022-12-11T01:04:05;88.30;;;33.50;;
48627;SDS011;34424;52.234;6.500;2022-12-11T01:09:08;81.15;;;30.40;;
48627;SDS011;34424;52.234;6.500;2022-12-11T01:14:29;89.85;;;33.42;;
48627;SDS011;34424;52.234;6.500;2022-12-11T01:19:32;89.88;;;33.85;;
48627;SDS011;34424;52.234;6.500;2022-12-11T01:24:34;95.43;;;33.57;;
48627;SDS011;34424;52.234;6.500;2022-12-11T01:29:39;98.40;;;36.22;;
48627;SDS011;34424;52.234;6.500;2022-12-11T01:34:42;101.90;;;37.05;;
48627;SDS011;34424;52.234;6.500;2022-12-11T01:39:44;98.88;;;36.85;;
48627;SDS011;34424;52.234;6.500;2022-12-11T01:50:09;116.32;;;38.65;;
48627;SDS011;34424;52.234;6.500;2022-12-11T01:55:12;112.63;;;36.13;;
48627;SDS011;34424;52.234;6.500;2022-12-11T02:00:15;100.45;;;36.05;;
48627;SDS011;34424;52.234;6.500;2022-12-11T02:05:19;108.70;;;36.80;;
48627;SDS011;34424;52.234;6.500;2022-12-11T02:10:22;103.57;;;34.65;;
48627;SDS011;34424;52.234;6.500;2022-12-11T02:15:28;110.20;;;38.53;;
48627;SDS011;34424;52.234;6.500;2022-12-11T02:20:35;116.72;;;38.63;;
48627;SDS011;34424;52.234;6.500;2022-12-11T02:25:40;118.63;;;36.08;;
48627;SDS011;34424;52.234;6.500;2022-12-11T02:30:49;113.55;;;38.20;;
48627;SDS011;34424;52.234;6.500;2022-12-11T02:35:52;108.57;;;39.30;;
48627;SDS011;34424;52.234;6.500;2022-12-11T02:40:56;112.03;;;39.60;;
48627;SDS011;34424;52.234;6.500;2022-12-11T02:51:03;111.45;;;37.70;;
48627;SDS011;34424;52.234;6.500;2022-12-11T02:56:07;121.57;;;40.13;;
48627;SDS011;34424;52.234;6.500;2022-12-11T03:01:11;129.00;;;39.67;;
48627;SDS011;34424;52.234;6.500;2022-12-11T03:06:17;123.60;;;38.90;;
48627;SDS011;34424;52.234;6.500;2022-12-11T03:11:21;121.80;;;41.03;;
48627;SDS011;34424;52.234;6.500;2022-12-11T03:16:27;117.55;;;37.97;;
48627;SDS011;34424;52.234;6.500;2022-12-11T03:21:33;106.97;;;37.05;;
48627;SDS011;34424;52.234;6.500;2022-12-11T03:26:39;128.88;;;41.38;;
48627;SDS011;34424;52.234;6.500;2022-12-11T03:31:44;124.40;;;37.55;;
48627;SDS011;34424;52.234;6.500;2022-12-11T03:41:50;108.35;;;36.88;;
48627;SDS011;34424;52.234;6.500;2022-12-11T03:46:54;129.85;;;42.03;;
48627;SDS011;34424;52.234;6.500;2022-12-11T03:51:58;114.18;;;40.42;;
48627;SDS011;34424;52.234;6.500;2022-12-11T03:57:03;107.70;;;37.42;;
48627;SDS011;34424;52.234;6.500;2022-12-11T04:02:06;118.25;;;37.67;;
48627;SDS011;34424;52.234;6.500;2022-12-11T04:07:11;106.35;;;41.05;;
48627;SDS011;34424;52.234;6.500;2022-12-11T04:12:15;126.65;;;41.00;;
48627;SDS011;34424;52.234;6.500;2022-12-11T04:17:17;125.18;;;40.47;;
48627;SDS011;34424;52.234;6.500;2022-12-11T04:22:34;118.32;;;40.05;;
48627;SDS011;34424;52.234;6.500;2022-12-11T04:27:55;118.25;;;38.42;;
48627;SDS011;34424;52.234;6.500;2022-12-11T04:32:58;108.82;;;37.00;;
48627;SDS011;34424;52.234;6.500;2022-12-11T04:38:00;123.70;;;39.45;;
48627;SDS011;34424;52.234;6.500;2022-12-11T04:43:04;127.40;;;39.58;;
48627;SDS011;34424;52.234;6.500;2022-12-11T04:48:06;115.78;;;41.58;;
48627;SDS011;34424;52.234;6.500;2022-12-11T04:53:09;115.53;;;39.88;;
48627;SDS011;34424;52.234;6.500;2022-12-11T04:58:13;124.80;;;42.50;;
48627;SDS011;34424;52.234;6.500;2022-12-11T05:03:15;117.57;;;38.13;;
48627;SDS011;34424;52.234;6.500;2022-12-11T05:08:18;121.15;;;36.75;;
48627;SDS011;34424;52.234;6.500;2022-12-11T05:13:22;121.40;;;39.33;;
48627;SDS011;34424;52.234;6.500;2022-12-11T05:18:25;124.75;;;40.15;;
48627;SDS011;34424;52.234;6.500;2022-12-11T05:23:27;107.25;;;39.60;;
48627;SDS011;34424;52.234;6.500;2022-12-11T05:28:32;110.70;;;38.87;;
48627;SDS011;34424;52.234;6.500;2022-12-11T05:33:35;101.28;;;35.50;;
48627;SDS011;34424;52.234;6.500;2022-12-11T05:38:38;114.55;;;38.97;;
48627;SDS011;34424;52.234;6.500;2022-12-11T05:43:41;129.98;;;40.92;;
48627;SDS011;34424;52.234;6.500;2022-12-11T05:48:44;108.85;;;36.15;;
48627;SDS011;34424;52.234;6.500;2022-12-11T05:53:48;106.35;;;36.58;;
48627;SDS011;34424;52.234;6.500;2022-12-11T05:58:52;102.93;;;37.10;;
48627;SDS011;34424;52.234;6.500;2022-12-11T06:03:55;89.75;;;33.25;;
48627;SDS011;34424;52.234;6.500;2022-12-11T06:08:58;90.38;;;33.28;;
48627;SDS011;34424;52.234;6.500;2022-12-11T06:14:02;99.70;;;35.75;;
48627;SDS011;34424;52.234;6.500;2022-12-11T06:19:05;93.75;;;34.25;;
48627;SDS011;34424;52.234;6.500;2022-12-11T06:24:09;97.95;;;34.10;;
48627;SDS011;34424;52.234;6.500;2022-12-11T06:29:13;101.38;;;34.35;;
48627;SDS011;34424;52.234;6.500;2022-12-11T06:34:16;112.28;;;38.30;;
48627;SDS011;34424;52.234;6.500;2022-12-11T06:39:18;87.18;;;34.17;;
48627;SDS011;34424;52.234;6.500;2022-12-11T06:44:22;112.05;;;35.70;;
48627;SDS011;34424;52.234;6.500;2022-12-11T06:49:25;97.75;;;34.15;;
48627;SDS011;34424;52.234;6.500;2022-12-11T06:54:27;99.07;;;36.70;;
48627;SDS011;34424;52.234;6.500;2022-12-11T06:59:31;99.78;;;34.28;;
48627;SDS011;34424;52.234;6.500;2022-12-11T07:04:34;108.40;;;36.20;;
48627;SDS011;34424;52.234;6.500;2022-12-11T07:09:37;98.88;;;35.92;;
48627;SDS011;34424;52.234;6.500;2022-12-11T07:14:42;106.80;;;37.92;;
48627;SDS011;34424;52.234;6.500;2022-12-11T07:19:44;102.90;;;35.85;;
48627;SDS011;34424;52.234;6.500;2022-12-11T07:24:47;104.35;;;37.78;;
48627;SDS011;34424;52.234;6.500;2022-12-11T07:29:50;108.75;;;36.38;;
48627;SDS011;34424;52.234;6.500;2022-12-11T07:34:53;105.13;;;37.03;;
48627;SDS011;34424;52.234;6.500;2022-12-11T07:39:55;98.47;;;34.28;;
48627;SDS011;34424;52.234;6.500;2022-12-11T07:44:59;117.93;;;36.88;;
48627;SDS011;34424;52.234;6.500;2022-12-11T07:50:02;100.97;;;37.28;;
48627;SDS011;34424;52.234;6.500;2022-12-11T07:55:04;101.55;;;38.75;;
48627;SDS011;34424;52.234;6.500;2022-12-11T08:00:09;111.93;;;37.50;;
48627;SDS011;34424;52.234;6.500;2022-12-11T08:05:11;101.15;;;39.15;;
48627;SDS011;34424;52.234;6.500;2022-12-11T08:10:14;110.82;;;37.60;;
48627;SDS011;34424;52.234;6.500;2022-12-11T08:15:18;104.32;;;36.13;;
48627;SDS011;34424;52.234;6.500;2022-12-11T08:20:20;112.15;;;41.35;;
48627;SDS011;34424;52.234;6.500;2022-12-11T08:25:23;125.57;;;42.83;;
48627;SDS011;34424;52.234;6.500;2022-12-11T08:30:27;115.97;;;41.58;;
48627;SDS011;34424;52.234;6.500;2022-12-11T08:35:29;101.43;;;37.67;;
48627;SDS011;34424;52.234;6.500;2022-12-11T08:40:32;114.03;;;39.33;;
48627;SDS011;34424;52.234;6.500;2022-12-11T08:45:35;112.03;;;40.53;;
48627;SDS011;34424;52.234;6.500;2022-12-11T08:50:38;108.15;;;40.08;;
48627;SDS011;34424;52.234;6.500;2022-12-11T08:55:41;110.72;;;37.10;;
48627;SDS011;34424;52.234;6.500;2022-12-11T09:00:45;106.28;;;36.53;;
48627;SDS011;34424;52.234;6.500;2022-12-11T09:05:47;112.28;;;38.75;;
48627;SDS011;34424;52.234;6.500;2022-12-11T09:10:50;95.53;;;36.85;;
48627;SDS011;34424;52.234;6.500;2022-12-11T09:15:54;116.03;;;41.97;;
48627;SDS011;34424;52.234;6.500;2022-12-11T09:20:57;107.68;;;41.53;;
48627;SDS011;34424;52.234;6.500;2022-12-11T09:26:02;93.30;;;37.33;;
48627;SDS011;34424;52.234;6.500;2022-12-11T09:31:08;103.35;;;39.25;;
48627;SDS011;34424;52.234;6.500;2022-12-11T09:36:11;105.38;;;38.60;;
48627;SDS011;34424;52.234;6.500;2022-12-11T09:41:25;101.10;;;36.47;;
48627;SDS011;34424;52.234;6.500;2022-12-11T09:46:29;90.70;;;36.08;;
48627;SDS011;34424;52.234;6.500;2022-12-11T09:51:35;86.05;;;36.42;;
48627;SDS011;34424;52.234;6.500;2022-12-11T09:56:41;86.00;;;35.45;;
48627;SDS011;34424;52.234;6.500;2022-12-11T10:01:48;80.95;;;33.17;;
48627;SDS011;34424;52.234;6.500;2022-12-11T10:06:55;89.05;;;36.75;;
48627;SDS011;34424;52.234;6.500;2022-12-11T10:12:02;83.15;;;34.13;;
48627;SDS011;34424;52.234;6.500;2022-12-11T10:17:09;78.03;;;33.58;;
48627;SDS011;34424;52.234;6.500;2022-12-11T10:22:13;77.55;;;33.00;;
48627;SDS011;34424;52.234;6.500;2022-12-11T10:27:18;68.38;;;27.45;;
48627;SDS011;34424;52.234;6.500;2022-12-11T10:32:24;61.22;;;26.05;;
48627;SDS011;34424;52.234;6.500;2022-12-11T10:37:29;59.60;;;25.70;;
48627;SDS011;34424;52.234;6.500;2022-12-11T10:42:32;60.45;;;25.35;;
48627;SDS011;34424;52.234;6.500;2022-12-11T10:47:36;46.00;;;22.83;;
48627;SDS011;34424;52.234;6.500;2022-12-11T10:52:41;45.00;;;23.00;;
48627;SDS011;34424;52.234;6.500;2022-12-11T10:57:45;36.65;;;18.85;;
48627;SDS011;34424;52.234;6.500;2022-12-11T11:02:56;43.05;;;21.38;;
48627;SDS011;34424;52.234;6.500;2022-12-11T11:08:10;48.70;;;25.25;;
48627;SDS011;34424;52.234;6.500;2022-12-11T11:13:13;44.05;;;23.63;;
48627;SDS011;34424;52.234;6.500;2022-12-11T11:18:18;45.05;;;21.88;;
48627;SDS011;34424;52.234;6.500;2022-12-11T11:23:23;42.97;;;19.98;;
48627;SDS011;34424;52.234;6.500;2022-12-11T11:28:27;41.65;;;21.40;;
48627;SDS011;34424;52.234;6.500;2022-12-11T11:33:32;41.15;;;20.13;;
48627;SDS011;34424;52.234;6.500;2022-12-11T11:38:36;41.90;;;20.63;;
48627;SDS011;34424;52.234;6.500;2022-12-11T11:43:42;36.22;;;18.33;;
48627;SDS011;34424;52.234;6.500;2022-12-11T11:48:52;34.35;;;19.77;;
48627;SDS011;34424;52.234;6.500;2022-12-11T11:53:57;38.28;;;17.92;;
48627;SDS011;34424;52.234;6.500;2022-12-11T11:59:05;35.40;;;18.95;;
48627;SDS011;34424;52.234;6.500;2022-12-11T12:04:11;38.63;;;20.70;;
48627;SDS011;34424;52.234;6.500;2022-12-11T12:09:16;31.23;;;16.35;;
48627;SDS011;34424;52.234;6.500;2022-12-11T12:14:22;28.05;;;17.00;;
48627;SDS011;34424;52.234;6.500;2022-12-11T12:19:49;29.38;;;16.65;;
48627;SDS011;34424;52.234;6.500;2022-12-11T12:24:55;31.65;;;17.63;;
48627;SDS011;34424;52.234;6.500;2022-12-11T12:30:01;33.92;;;17.42;;
48627;SDS011;34424;52.234;6.500;2022-12-11T12:35:08;34.10;;;17.38;;
48627;SDS011;34424;52.234;6.500;2022-12-11T12:40:17;29.02;;;16.25;;
48627;SDS011;34424;52.234;6.500;2022-12-11T12:45:24;29.30;;;16.92;;
48627;SDS011;34424;52.234;6.500;2022-12-11T12:50:31;31.33;;;16.92;;
48627;SDS011;34424;52.234;6.500;2022-12-11T12:55:36;23.48;;;13.80;;
48627;SDS011;34424;52.234;6.500;2022-12-11T13:00:39;27.83;;;15.90;;
48627;SDS011;34424;52.234;6.500;2022-12-11T13:05:44;31.58;;;17.30;;
48627;SDS011;34424;52.234;6.500;2022-12-11T13:10:55;25.27;;;15.50;;
48627;SDS011;34424;52.234;6.500;2022-12-11T13:16:07;31.70;;;15.80;;
48627;SDS011;34424;52.234;6.500;2022-12-11T13:21:26;32.97;;;17.95;;
48627;SDS011;34424;52.234;6.500;2022-12-11T13:26:29;36.95;;;21.00;;
48627;SDS011;34424;52.234;6.500;2022-12-11T13:31:33;29.83;;;17.38;;
48627;SDS011;34424;52.234;6.500;2022-12-11T13:41:42;32.42;;;18.13;;
48627;SDS011;34424;52.234;6.500;2022-12-11T13:46:45;29.15;;;16.85;;
48627;SDS011;34424;52.234;6.500;2022-12-11T13:51:52;28.45;;;16.88;;
48627;SDS011;34424;52.234;6.500;2022-12-11T13:56:58;29.83;;;17.05;;
48627;SDS011;34424;52.234;6.500;2022-12-11T14:02:03;33.78;;;18.13;;
48627;SDS011;34424;52.234;6.500;2022-12-11T14:07:06;32.85;;;18.30;;
48627;SDS011;34424;52.234;6.500;2022-12-11T14:12:13;40.15;;;23.60;;
48627;SDS011;34424;52.234;6.500;2022-12-11T14:17:19;35.75;;;21.35;;
48627;SDS011;34424;52.234;6.500;2022-12-11T14:22:24;38.80;;;22.38;;
48627;SDS011;34424;52.234;6.500;2022-12-11T14:27:28;33.50;;;19.95;;
48627;SDS011;34424;52.234;6.500;2022-12-11T14:32:31;39.83;;;24.55;;
48627;SDS011;34424;52.234;6.500;2022-12-11T14:37:35;44.80;;;26.88;;
48627;SDS011;34424;52.234;6.500;2022-12-11T14:42:39;40.10;;;22.13;;
48627;SDS011;34424;52.234;6.500;2022-12-11T14:47:42;36.05;;;20.02;;
48627;SDS011;34424;52.234;6.500;2022-12-11T14:52:45;36.03;;;21.17;;
48627;SDS011;34424;52.234;6.500;2022-12-11T14:57:51;30.88;;;20.10;;
48627;SDS011;34424;52.234;6.500;2022-12-11T15:02:56;37.40;;;20.73;;
48627;SDS011;34424;52.234;6.500;2022-12-11T15:07:59;42.75;;;24.65;;
48627;SDS011;34424;52.234;6.500;2022-12-11T15:13:04;39.75;;;22.00;;
48627;SDS011;34424;52.234;6.500;2022-12-11T15:18:11;38.83;;;22.30;;
48627;SDS011;34424;52.234;6.500;2022-12-11T15:23:17;43.90;;;24.05;;
48627;SDS011;34424;52.234;6.500;2022-12-11T15:28:28;46.42;;;24.95;;
48627;SDS011;34424;52.234;6.500;2022-12-11T15:33:31;41.90;;;23.17;;
48627;SDS011;34424;52.234;6.500;2022-12-11T15:38:35;42.47;;;22.33;;
48627;SDS011;34424;52.234;6.500;2022-12-11T15:43:41;42.00;;;21.65;;
48627;SDS011;34424;52.234;6.500;2022-12-11T15:48:43;42.60;;;23.77;;
48627;SDS011;34424;52.234;6.500;2022-12-11T15:53:46;41.95;;;22.55;;
48627;SDS011;34424;52.234;6.500;2022-12-11T15:58:50;33.92;;;21.63;;
48627;SDS011;34424;52.234;6.500;2022-12-11T16:03:52;39.72;;;21.10;;
48627;SDS011;34424;52.234;6.500;2022-12-11T16:08:55;45.55;;;25.02;;
48627;SDS011;34424;52.234;6.500;2022-12-11T16:13:58;48.33;;;24.83;;
48627;SDS011;34424;52.234;6.500;2022-12-11T16:19:04;47.22;;;25.35;;
48627;SDS011;34424;52.234;6.500;2022-12-11T16:24:06;40.72;;;22.23;;
48627;SDS011;34424;52.234;6.500;2022-12-11T16:29:10;38.92;;;21.88;;
48627;SDS011;34424;52.234;6.500;2022-12-11T16:34:13;36.55;;;20.98;;
48627;SDS011;34424;52.234;6.500;2022-12-11T16:39:15;36.10;;;20.70;;
48627;SDS011;34424;52.234;6.500;2022-12-11T16:44:20;55.50;;;29.42;;
48627;SDS011;34424;52.234;6.500;2022-12-11T16:49:22;47.65;;;25.73;;
48627;SDS011;34424;52.234;6.500;2022-12-11T16:54:25;40.72;;;21.73;;
48627;SDS011;34424;52.234;6.500;2022-12-11T16:59:29;36.45;;;19.35;;
48627;SDS011;34424;52.234;6.500;2022-12-11T17:04:37;37.25;;;20.67;;
48627;SDS011;34424;52.234;6.500;2022-12-11T17:09:40;36.63;;;20.07;;
48627;SDS011;34424;52.234;6.500;2022-12-11T17:14:44;36.80;;;20.53;;
48627;SDS011;34424;52.234;6.500;2022-12-11T17:19:46;40.72;;;20.67;;
48627;SDS011;34424;52.234;6.500;2022-12-11T17:24:49;41.90;;;23.33;;
48627;SDS011;34424;52.234;6.500;2022-12-11T17:29:53;39.20;;;22.30;;
48627;SDS011;34424;52.234;6.500;2022-12-11T17:34:55;39.40;;;20.40;;
48627;SDS011;34424;52.234;6.500;2022-12-11T17:45:03;32.22;;;17.80;;
48627;SDS011;34424;52.234;6.500;2022-12-11T17:50:06;34.40;;;19.02;;
48627;SDS011;34424;52.234;6.500;2022-12-11T17:55:08;34.13;;;20.77;;
48627;SDS011;34424;52.234;6.500;2022-12-11T18:00:13;39.13;;;24.70;;
48627;SDS011;34424;52.234;6.500;2022-12-11T18:05:16;39.38;;;22.98;;
48627;SDS011;34424;52.234;6.500;2022-12-11T18:10:20;34.78;;;19.23;;
48627;SDS011;34424;52.234;6.500;2022-12-11T18:15:24;33.25;;;18.88;;
48627;SDS011;34424;52.234;6.500;2022-12-11T18:20:29;34.05;;;19.55;;
48627;SDS011;34424;52.234;6.500;2022-12-11T18:25:32;40.30;;;22.10;;
48627;SDS011;34424;52.234;6.500;2022-12-11T18:30:36;39.03;;;19.57;;
48627;SDS011;34424;52.234;6.500;2022-12-11T18:35:40;30.48;;;18.70;;
48627;SDS011;34424;52.234;6.500;2022-12-11T18:40:42;32.40;;;18.40;;
48627;SDS011;34424;52.234;6.500;2022-12-11T18:45:46;40.90;;;24.23;;
48627;SDS011;34424;52.234;6.500;2022-12-11T18:50:49;39.28;;;22.52;;
48627;SDS011;34424;52.234;6.500;2022-12-11T18:55:52;34.20;;;20.30;;
48627;SDS011;34424;52.234;6.500;2022-12-11T19:01:05;32.42;;;16.48;;
48627;SDS011;34424;52.234;6.500;2022-12-11T19:06:08;29.55;;;18.50;;
48627;SDS011;34424;52.234;6.500;2022-12-11T19:11:12;34.35;;;19.55;;
48627;SDS011;34424;52.234;6.500;2022-12-11T19:16:19;29.67;;;19.45;;
48627;SDS011;34424;52.234;6.500;2022-12-11T19:21:22;29.95;;;17.33;;
48627;SDS011;34424;52.234;6.500;2022-12-11T19:26:24;28.33;;;17.95;;
48627;SDS011;34424;52.234;6.500;2022-12-11T19:31:29;29.77;;;19.60;;
48627;SDS011;34424;52.234;6.500;2022-12-11T19:36:32;33.22;;;20.58;;
48627;SDS011;34424;52.234;6.500;2022-12-11T19:41:36;37.72;;;20.83;;
48627;SDS011;34424;52.234;6.500;2022-12-11T19:46:40;36.05;;;20.55;;
48627;SDS011;34424;52.234;6.500;2022-12-11T19:51:42;35.30;;;20.88;;
48627;SDS011;34424;52.234;6.500;2022-12-11T19:56:45;36.95;;;22.95;;
48627;SDS011;34424;52.234;6.500;2022-12-11T20:01:49;42.58;;;24.60;;
48627;SDS011;34424;52.234;6.500;2022-12-11T20:06:52;34.17;;;20.10;;
48627;SDS011;34424;52.234;6.500;2022-12-11T20:11:54;28.77;;;16.02;;
48627;SDS011;34424;52.234;6.500;2022-12-11T20:16:58;28.30;;;14.70;;
48627;SDS011;34424;52.234;6.500;2022-12-11T20:22:16;28.13;;;16.75;;
48627;SDS011;34424;52.234;6.500;2022-12-11T20:27:19;31.48;;;16.45;;
48627;SDS011;34424;52.234;6.500;2022-12-11T20:32:23;24.48;;;15.73;;
48627;SDS011;34424;52.234;6.500;2022-12-11T20:37:26;25.88;;;18.10;;
48627;SDS011;34424;52.234;6.500;2022-12-11T20:42:29;26.23;;;16.27;;
48627;SDS011;34424;52.234;6.500;2022-12-11T20:47:33;28.02;;;15.25;;
48627;SDS011;34424;52.234;6.500;2022-12-11T20:52:36;30.35;;;19.98;;
48627;SDS011;34424;52.234;6.500;2022-12-11T20:57:39;30.75;;;18.08;;
48627;SDS011;34424;52.234;6.500;2022-12-11T21:02:47;37.28;;;23.75;;
48627;SDS011;34424;52.234;6.500;2022-12-11T21:07:52;28.00;;;17.65;;
48627;SDS011;34424;52.234;6.500;2022-12-11T21:12:54;22.63;;;14.43;;
48627;SDS011;34424;52.234;6.500;2022-12-11T21:17:58;29.05;;;16.27;;
48627;SDS011;34424;52.234;6.500;2022-12-11T21:23:01;29.67;;;17.00;;
48627;SDS011;34424;52.234;6.500;2022-12-11T21:28:03;27.30;;;15.47;;
48627;SDS011;34424;52.234;6.500;2022-12-11T21:33:07;33.60;;;18.25;;
48627;SDS011;34424;52.234;6.500;2022-12-11T21:38:10;31.45;;;16.92;;
48627;SDS011;34424;52.234;6.500;2022-12-11T21:43:12;23.65;;;15.32;;
48627;SDS011;34424;52.234;6.500;2022-12-11T21:48:16;28.48;;;16.60;;
48627;SDS011;34424;52.234;6.500;2022-12-11T21:53:19;32.15;;;21.35;;
48627;SDS011;34424;52.234;6.500;2022-12-11T21:58:21;30.08;;;15.88;;
48627;SDS011;34424;52.234;6.500;2022-12-11T22:03:25;27.60;;;17.77;;
48627;SDS011;34424;52.234;6.500;2022-12-11T22:08:28;30.60;;;18.17;;
48627;SDS011;34424;52.234;6.500;2022-12-11T22:13:30;30.38;;;16.88;;
48627;SDS011;34424;52.234;6.500;2022-12-11T22:18:34;26.13;;;14.53;;
48627;SDS011;34424;52.234;6.500;2022-12-11T22:23:37;26.67;;;16.00;;
48627;SDS011;34424;52.234;6.500;2022-12-11T22:28:40;32.42;;;18.48;;
48627;SDS011;34424;52.234;6.500;2022-12-11T22:33:44;31.17;;;18.50;;
48627;SDS011;34424;52.234;6.500;2022-12-11T22:38:46;26.70;;;15.95;;
48627;SDS011;34424;52.234;6.500;2022-12-11T22:43:49;27.50;;;14.88;;
48627;SDS011;34424;52.234;6.500;2022-12-11T22:48:53;26.20;;;15.02;;
48627;SDS011;34424;52.234;6.500;2022-12-11T22:53:56;26.13;;;15.98;;
48627;SDS011;34424;52.234;6.500;2022-12-11T22:58:58;29.50;;;17.00;;
48627;SDS011;34424;52.234;6.500;2022-12-11T23:04:02;24.88;;;15.15;;
48627;SDS011;34424;52.234;6.500;2022-12-11T23:09:05;26.45;;;16.48;;
48627;SDS011;34424;52.234;6.500;2022-12-11T23:14:10;26.20;;;15.07;;
48627;SDS011;34424;52.234;6.500;2022-12-11T23:19:15;25.70;;;16.33;;
48627;SDS011;34424;52.234;6.500;2022-12-11T23:24:25;28.73;;;16.45;;
48627;SDS011;34424;52.234;6.500;2022-12-11T23:29:27;26.08;;;14.93;;
48627;SDS011;34424;52.234;6.500;2022-12-11T23:34:31;22.50;;;14.32;;
48627;SDS011;34424;52.234;6.500;2022-12-11T23:39:34;28.08;;;15.48;;
48627;SDS011;34424;52.234;6.500;2022-12-11T23:44:36;23.25;;;15.38;;
48627;SDS011;34424;52.234;6.500;2022-12-11T23:49:40;24.35;;;15.45;;
48627;SDS011;34424;52.234;6.500;2022-12-11T23:54:42;23.70;;;14.55;;
48627;SDS011;34424;52.234;6.500;2022-12-11T23:59:45;28.80;;;16.08;;
